createdAt,value
2023-09-02T00:02:00.614Z,3.90
2023-09-02T00:04:31.323Z,3.72
2023-09-02T00:06:59.954Z,3.75
2023-09-02T00:09:28.522Z,3.30
2023-09-02T00:11:56.969Z,3.58
2023-09-02T00:14:25.463Z,3.35
2023-09-02T00:16:55.377Z,3.10
2023-09-02T00:19:24.157Z,3.30
2023-09-02T00:21:53.074Z,4.00
2023-09-02T00:24:21.594Z,4.63
2023-09-02T00:26:50.711Z,5.03
2023-09-02T00:29:19.211Z,4.30
2023-09-02T00:31:47.829Z,4.57
2023-09-02T00:34:17.663Z,3.78
2023-09-02T00:36:46.180Z,3.65
2023-09-02T00:39:14.975Z,4.05
2023-09-02T00:41:49.227Z,3.80
2023-09-02T00:44:17.889Z,3.33
2023-09-02T00:46:47.119Z,3.47
2023-09-02T00:49:17.329Z,2.53
2023-09-02T00:51:45.907Z,3.28
2023-09-02T00:54:14.343Z,2.80
2023-09-02T00:56:43.392Z,3.03
2023-09-02T00:59:13.806Z,2.85
2023-09-02T01:01:45.660Z,3.05
2023-09-02T01:04:14.317Z,2.60
2023-09-02T01:06:44.999Z,2.38
2023-09-02T01:09:14.096Z,2.63
2023-09-02T01:11:42.600Z,2.90
2023-09-02T01:14:12.999Z,2.95
2023-09-02T01:16:42.055Z,2.72
2023-09-02T01:19:15.109Z,2.65
2023-09-02T01:22:14.685Z,2.92
2023-09-02T01:25:18.568Z,2.28
2023-09-02T01:27:54.622Z,2.47
2023-09-02T01:30:28.839Z,2.67
2023-09-02T01:32:59.843Z,2.65
2023-09-02T01:35:36.826Z,2.95
2023-09-02T01:38:08.045Z,2.35
2023-09-02T01:40:37.864Z,1.80
2023-09-02T01:43:08.908Z,1.83
2023-09-02T01:45:38.720Z,2.25
2023-09-02T01:48:09.020Z,1.90
2023-09-02T01:50:40.913Z,2.15
2023-09-02T01:53:10.135Z,2.08
2023-09-02T01:55:39.460Z,2.35
2023-09-02T01:58:09.605Z,2.38
2023-09-02T02:00:40.118Z,1.75
2023-09-02T02:03:17.345Z,1.63
2023-09-02T02:05:52.822Z,2.25
2023-09-02T02:08:31.522Z,2.03
2023-09-02T02:11:04.634Z,1.65
2023-09-02T02:13:34.603Z,1.98
2023-09-02T02:16:03.385Z,1.75
2023-09-02T02:18:32.210Z,1.67
2023-09-02T02:21:03.771Z,1.73
2023-09-02T02:23:32.598Z,1.38
2023-09-02T02:26:02.549Z,1.45
2023-09-02T02:28:31.840Z,2.03
2023-09-02T02:31:02.321Z,1.63
2023-09-02T02:33:30.914Z,1.73
2023-09-02T02:35:59.431Z,1.65
2023-09-02T02:38:27.874Z,1.77
2023-09-02T02:40:56.460Z,1.50
2023-09-02T02:43:27.658Z,2.40
2023-09-02T02:45:56.399Z,1.73
2023-09-02T02:48:31.481Z,1.65
2023-09-02T02:51:00.616Z,1.48
2023-09-02T02:53:29.175Z,1.70
2023-09-02T02:55:57.729Z,1.90
2023-09-02T02:58:26.208Z,2.03
2023-09-02T03:01:05.331Z,1.27
2023-09-02T03:03:36.516Z,2.00
2023-09-02T03:06:06.526Z,1.95
2023-09-02T03:08:36.227Z,2.10
2023-09-02T03:11:07.566Z,2.10
2023-09-02T03:13:36.104Z,2.25
2023-09-02T03:16:05.712Z,1.85
2023-09-02T03:18:35.729Z,1.92
2023-09-02T03:21:05.013Z,1.90
2023-09-02T03:23:35.771Z,1.60
2023-09-02T03:26:16.431Z,1.58
2023-09-02T03:28:45.024Z,1.77
2023-09-02T03:31:14.150Z,2.03
2023-09-02T03:33:44.177Z,1.60
2023-09-02T03:36:18.822Z,1.92
2023-09-02T03:38:47.589Z,2.35
2023-09-02T03:41:18.630Z,1.73
2023-09-02T03:43:47.869Z,1.73
2023-09-02T03:46:16.745Z,1.70
2023-09-02T03:48:47.581Z,1.60
2023-09-02T03:51:17.691Z,2.08
2023-09-02T03:53:46.632Z,2.03
2023-09-02T03:56:15.608Z,1.73
2023-09-02T03:58:44.481Z,1.60
2023-09-02T04:01:13.837Z,1.83
2023-09-02T04:03:43.033Z,1.90
2023-09-02T04:06:13.008Z,2.70
2023-09-02T04:08:41.528Z,2.10
2023-09-02T04:11:10.167Z,1.75
2023-09-02T04:13:38.676Z,3.17
2023-09-02T04:16:09.808Z,2.05
2023-09-02T04:18:38.827Z,2.00
2023-09-02T04:21:10.211Z,2.63
2023-09-02T04:23:42.716Z,1.98
2023-09-02T04:26:11.284Z,1.80
2023-09-02T04:28:40.711Z,1.75
2023-09-02T04:31:09.266Z,1.77
2023-09-02T04:33:37.856Z,2.38
2023-09-02T04:36:07.333Z,1.65
2023-09-02T04:38:36.332Z,2.30
2023-09-02T04:41:07.662Z,2.47
2023-09-02T04:43:37.295Z,2.22
2023-09-02T04:46:06.706Z,2.13
2023-09-02T04:48:35.343Z,2.17
2023-09-02T04:51:04.853Z,2.65
2023-09-02T04:53:33.451Z,2.28
2023-09-02T04:56:02.834Z,1.90
2023-09-02T04:58:32.749Z,2.17
2023-09-02T05:01:10.827Z,1.67
2023-09-02T05:03:39.421Z,1.60
2023-09-02T05:06:11.636Z,1.73
2023-09-02T05:08:40.512Z,1.80
2023-09-02T05:11:09.072Z,1.95
2023-09-02T05:13:39.080Z,1.88
2023-09-02T05:16:07.676Z,1.83
2023-09-02T05:18:36.294Z,2.00
2023-09-02T05:21:05.023Z,2.42
2023-09-02T05:23:34.331Z,1.52
2023-09-02T05:26:02.796Z,2.15
2023-09-02T05:28:31.287Z,2.15
2023-09-02T05:31:01.238Z,1.65
2023-09-02T05:33:29.828Z,2.13
2023-09-02T05:35:58.400Z,2.88
2023-09-02T05:38:26.944Z,1.80
2023-09-02T05:40:55.887Z,2.22
2023-09-02T05:43:25.909Z,1.42
2023-09-02T05:45:54.478Z,1.65
2023-09-02T05:48:24.342Z,2.25
2023-09-02T05:50:52.799Z,1.80
2023-09-02T05:53:21.590Z,1.98
2023-09-02T05:55:55.700Z,2.20
2023-09-02T05:58:25.963Z,1.92
2023-09-02T06:00:55.707Z,2.42
2023-09-02T06:03:25.675Z,1.77
2023-09-02T06:05:54.182Z,2.08
2023-09-02T06:08:22.701Z,1.85
2023-09-02T06:10:59.221Z,2.33
2023-09-02T06:13:28.197Z,1.92
2023-09-02T06:16:01.461Z,2.78
2023-09-02T06:18:32.060Z,2.60
2023-09-02T06:21:01.070Z,2.17
2023-09-02T06:23:30.846Z,2.20
2023-09-02T06:25:59.765Z,2.20
2023-09-02T06:28:29.435Z,2.17
2023-09-02T06:30:58.451Z,2.50
2023-09-02T06:33:27.259Z,2.50
2023-09-02T06:35:56.999Z,2.10
2023-09-02T06:38:25.645Z,2.13
2023-09-02T06:40:54.139Z,1.75
2023-09-02T06:43:22.700Z,2.47
2023-09-02T06:45:51.236Z,2.00
2023-09-02T06:48:19.776Z,2.22
2023-09-02T06:50:48.745Z,2.25
2023-09-02T06:53:18.850Z,2.33
2023-09-02T06:55:47.432Z,2.28
2023-09-02T06:58:15.883Z,2.08
2023-09-02T07:00:45.153Z,2.13
2023-09-02T07:03:15.213Z,2.25
2023-09-02T07:05:43.726Z,2.13
2023-09-02T07:08:13.065Z,1.98
2023-09-02T07:10:42.868Z,1.80
2023-09-02T07:13:11.421Z,1.73
2023-09-02T07:15:39.915Z,2.03
2023-09-02T07:18:08.605Z,2.15
2023-09-02T07:20:39.025Z,2.20
2023-09-02T07:23:07.546Z,1.90
2023-09-02T07:25:36.135Z,1.98
2023-09-02T07:28:07.239Z,2.92
2023-09-02T07:30:39.736Z,2.58
2023-09-02T07:33:08.415Z,1.90
2023-09-02T07:35:37.596Z,1.92
2023-09-02T07:38:06.714Z,1.98
2023-09-02T07:40:35.355Z,2.92
2023-09-02T07:43:06.064Z,3.35
2023-09-02T07:45:34.681Z,2.72
2023-09-02T07:48:03.710Z,3.08
2023-09-02T07:50:32.208Z,2.08
2023-09-02T07:53:00.701Z,2.88
2023-09-02T07:55:29.273Z,2.17
2023-09-02T07:57:58.629Z,3.25
2023-09-02T08:00:28.522Z,2.85
2023-09-02T08:02:57.060Z,3.25
2023-09-02T08:05:26.012Z,3.28
2023-09-02T08:07:54.670Z,2.80
2023-09-02T08:10:23.324Z,2.20
2023-09-02T08:12:51.813Z,2.30
2023-09-02T08:15:21.386Z,2.05
2023-09-02T08:17:51.305Z,2.38
2023-09-02T08:20:20.088Z,2.13
2023-09-02T08:22:48.619Z,2.40
2023-09-02T08:25:17.543Z,2.63
2023-09-02T08:27:47.563Z,2.30
2023-09-02T08:30:16.683Z,2.60
2023-09-02T08:32:45.313Z,2.53
2023-09-02T08:35:15.355Z,2.60
2023-09-02T08:37:43.896Z,2.47
2023-09-02T08:40:13.289Z,2.38
2023-09-02T08:42:43.339Z,2.25
2023-09-02T08:45:14.734Z,2.28
2023-09-02T08:47:44.576Z,2.63
2023-09-02T08:50:15.414Z,3.45
2023-09-02T08:52:46.091Z,2.50
2023-09-02T08:55:16.253Z,1.80
2023-09-02T08:57:46.935Z,2.20
2023-09-02T09:00:15.738Z,1.70
2023-09-02T09:02:45.355Z,2.80
2023-09-02T09:05:15.792Z,2.72
2023-09-02T09:07:45.672Z,2.63
2023-09-02T09:10:19.610Z,5.35
2023-09-02T09:12:52.570Z,2.65
2023-09-02T09:15:23.815Z,2.15
2023-09-02T09:17:52.743Z,2.00
2023-09-02T09:20:23.043Z,2.13
2023-09-02T09:22:52.225Z,2.45
2023-09-02T09:25:22.091Z,2.38
2023-09-02T09:27:51.201Z,2.53
2023-09-02T09:30:31.180Z,2.00
2023-09-02T09:33:02.353Z,2.13
2023-09-02T09:35:32.745Z,1.90
2023-09-02T09:38:01.994Z,1.77
2023-09-02T09:40:35.168Z,1.70
2023-09-02T09:43:16.464Z,1.63
2023-09-02T09:45:53.113Z,1.55
2023-09-02T09:48:21.747Z,1.67
2023-09-02T09:50:52.009Z,1.75
2023-09-02T09:53:21.370Z,2.60
2023-09-02T09:55:50.154Z,2.72
2023-09-02T09:58:25.141Z,1.50
2023-09-02T10:00:53.807Z,1.70
2023-09-02T10:03:32.060Z,2.40
2023-09-02T10:06:03.490Z,2.00
2023-09-02T10:08:52.173Z,1.83
2023-09-02T10:11:23.201Z,1.75
2023-09-02T10:13:54.017Z,1.80
2023-09-02T10:16:23.653Z,1.92
2023-09-02T10:18:52.276Z,1.95
2023-09-02T10:21:26.073Z,1.67
2023-09-02T10:24:01.785Z,1.75
2023-09-02T10:26:37.036Z,1.58
2023-09-02T10:29:10.554Z,1.63
2023-09-02T10:31:42.715Z,2.00
2023-09-02T10:34:19.906Z,2.17
2023-09-02T10:36:57.537Z,1.80
2023-09-02T10:39:43.785Z,2.25
2023-09-02T10:42:13.285Z,1.73
2023-09-02T10:44:41.908Z,1.48
2023-09-02T10:47:10.848Z,1.55
2023-09-02T10:49:40.588Z,2.10
2023-09-02T10:52:13.563Z,2.00
2023-09-02T10:55:05.887Z,1.80
2023-09-02T10:57:45.657Z,1.90
2023-09-02T11:00:19.339Z,1.45
2023-09-02T11:02:49.948Z,1.50
2023-09-02T11:05:18.461Z,1.92
2023-09-02T11:07:50.487Z,2.10
2023-09-02T11:10:19.706Z,1.67
2023-09-02T11:13:07.622Z,1.40
2023-09-02T11:15:38.130Z,1.77
2023-09-02T11:18:29.413Z,2.45
2023-09-02T11:20:59.627Z,1.60
2023-09-02T11:23:29.646Z,1.90
2023-09-02T11:26:08.945Z,1.60
2023-09-02T11:28:38.232Z,1.75
2023-09-02T11:31:11.891Z,1.90
2023-09-02T11:33:41.581Z,1.90
2023-09-02T11:36:18.811Z,1.95
2023-09-02T11:38:48.824Z,2.17
2023-09-02T11:41:26.231Z,2.00
2023-09-02T11:43:56.367Z,1.80
2023-09-02T11:46:24.967Z,2.00
2023-09-02T11:48:53.599Z,2.47
2023-09-02T11:51:22.218Z,2.38
2023-09-02T11:53:57.147Z,2.20
2023-09-02T11:56:25.819Z,2.22
2023-09-02T11:58:54.340Z,2.80
2023-09-02T12:01:22.993Z,2.13
2023-09-02T12:03:51.559Z,2.20
2023-09-02T12:06:20.073Z,2.38
2023-09-02T12:08:48.692Z,1.98
2023-09-02T12:11:18.721Z,1.92
2023-09-02T12:13:47.310Z,2.20
2023-09-02T12:16:21.787Z,2.35
2023-09-02T12:18:51.924Z,1.95
2023-09-02T12:21:20.764Z,2.78
2023-09-02T12:23:49.568Z,2.40
2023-09-02T12:26:19.407Z,2.03
2023-09-02T12:28:51.190Z,2.00
2023-09-02T12:31:22.021Z,1.70
2023-09-02T12:33:52.950Z,1.83
2023-09-02T12:36:21.849Z,2.40
2023-09-02T12:38:53.881Z,2.30
2023-09-02T12:41:23.824Z,2.30
2023-09-02T12:43:52.422Z,1.70
2023-09-02T12:46:23.642Z,2.13
2023-09-02T12:48:52.955Z,2.20
2023-09-02T12:51:29.973Z,2.38
2023-09-02T12:54:00.414Z,2.30
2023-09-02T12:56:30.534Z,3.28
2023-09-02T12:58:59.103Z,2.58
2023-09-02T13:01:27.770Z,1.70
2023-09-02T13:03:56.705Z,2.40
2023-09-02T13:06:28.282Z,2.67
2023-09-02T13:08:57.890Z,2.72
2023-09-02T13:11:29.452Z,3.85
2023-09-02T13:13:58.453Z,2.28
2023-09-02T13:16:30.074Z,2.28
2023-09-02T13:18:59.499Z,2.17
2023-09-02T13:21:28.400Z,1.88
2023-09-02T13:23:58.628Z,2.75
2023-09-02T13:26:27.370Z,2.22
2023-09-02T13:28:59.597Z,2.72
2023-09-02T13:31:29.699Z,2.45
2023-09-02T13:33:58.742Z,2.70
2023-09-02T13:36:28.742Z,2.47
2023-09-02T13:39:00.648Z,2.60
2023-09-02T13:41:30.156Z,2.40
2023-09-02T13:44:00.972Z,2.28
2023-09-02T13:46:33.363Z,2.40
2023-09-02T13:49:02.370Z,2.92
2023-09-02T13:51:32.050Z,3.13
2023-09-02T13:54:01.943Z,2.58
2023-09-02T13:56:31.350Z,2.35
2023-09-02T13:59:04.376Z,1.83
2023-09-02T14:01:34.561Z,1.85
2023-09-02T14:04:05.208Z,1.77
2023-09-02T14:06:34.212Z,2.42
2023-09-02T14:09:04.210Z,2.80
2023-09-02T14:11:33.897Z,2.22
2023-09-02T14:14:04.969Z,2.05
2023-09-02T14:16:33.547Z,2.75
2023-09-02T14:19:02.727Z,2.33
2023-09-02T14:21:31.298Z,4.45
2023-09-02T14:24:00.279Z,2.45
2023-09-02T14:26:31.409Z,1.95
2023-09-02T14:29:01.006Z,2.22
2023-09-02T14:31:32.831Z,2.65
2023-09-02T14:34:01.491Z,2.80
2023-09-02T14:36:30.612Z,3.20
2023-09-02T14:39:00.115Z,2.33
2023-09-02T14:41:29.386Z,1.75
2023-09-02T14:43:59.765Z,2.53
2023-09-02T14:46:31.349Z,2.50
2023-09-02T14:49:02.081Z,2.35
2023-09-02T14:51:34.812Z,2.28
2023-09-02T14:54:03.617Z,1.70
2023-09-02T14:56:32.431Z,1.73
2023-09-02T14:59:04.909Z,2.33
2023-09-02T15:01:38.392Z,1.90
2023-09-02T15:04:09.104Z,2.47
2023-09-02T15:06:38.345Z,2.35
2023-09-02T15:09:09.225Z,2.42
2023-09-02T15:11:40.160Z,2.45
2023-09-02T15:14:10.468Z,2.28
2023-09-02T15:16:41.084Z,2.22
2023-09-02T15:19:14.747Z,2.35
2023-09-02T15:21:44.211Z,2.72
2023-09-02T15:24:12.971Z,1.67
2023-09-02T15:26:42.692Z,1.80
2023-09-02T15:29:16.125Z,2.40
2023-09-02T15:31:51.090Z,1.92
2023-09-02T15:34:20.213Z,2.15
2023-09-02T15:36:49.630Z,2.42
2023-09-02T15:39:27.740Z,2.25
2023-09-02T15:41:57.674Z,2.63
2023-09-02T15:44:26.683Z,3.85
2023-09-02T15:46:57.427Z,2.47
2023-09-02T15:49:27.136Z,2.40
2023-09-02T15:51:56.396Z,2.20
2023-09-02T15:54:26.303Z,2.10
2023-09-02T15:56:55.444Z,2.30
2023-09-02T15:59:24.726Z,2.60
2023-09-02T16:01:54.325Z,2.63
2023-09-02T16:04:25.764Z,1.90
2023-09-02T16:06:54.831Z,2.03
2023-09-02T16:09:24.383Z,1.92
2023-09-02T16:11:54.932Z,2.00
2023-09-02T16:14:24.389Z,2.15
2023-09-02T16:16:54.652Z,2.05
2023-09-02T16:19:25.620Z,1.73
2023-09-02T16:21:55.031Z,1.85
2023-09-02T16:24:25.265Z,2.00
2023-09-02T16:26:54.296Z,1.90
2023-09-02T16:29:26.504Z,2.00
2023-09-02T16:31:56.129Z,2.13
2023-09-02T16:34:28.443Z,2.38
2023-09-02T16:37:00.211Z,2.63
2023-09-02T16:39:29.951Z,2.35
2023-09-02T16:42:02.831Z,2.47
2023-09-02T16:44:31.554Z,2.00
2023-09-02T16:47:02.219Z,2.13
2023-09-02T16:49:33.300Z,2.65
2023-09-02T16:52:09.854Z,3.10
2023-09-02T16:54:40.690Z,2.65
2023-09-02T16:57:11.891Z,2.67
2023-09-02T16:59:41.289Z,2.88
2023-09-02T17:02:22.085Z,2.78
2023-09-02T17:04:53.553Z,2.60
2023-09-02T17:07:22.608Z,2.42
2023-09-02T17:09:53.768Z,2.45
2023-09-02T17:12:24.786Z,3.30
2023-09-02T17:14:54.991Z,2.80
2023-09-02T17:17:24.015Z,3.05
2023-09-02T17:19:55.103Z,2.25
2023-09-02T17:22:25.687Z,3.25
2023-09-02T17:24:57.998Z,2.78
2023-09-02T17:27:28.908Z,2.50
2023-09-02T17:29:58.364Z,2.65
2023-09-02T17:32:27.372Z,2.40
2023-09-02T17:34:57.992Z,2.65
2023-09-02T17:37:27.450Z,2.25
2023-09-02T17:39:57.616Z,2.85
2023-09-02T17:42:27.781Z,2.15
2023-09-02T17:44:57.760Z,2.60
2023-09-02T17:47:27.537Z,2.42
2023-09-02T17:49:58.016Z,2.35
2023-09-02T17:52:28.626Z,2.78
2023-09-02T17:54:58.119Z,2.70
2023-09-02T17:57:27.459Z,3.13
2023-09-02T17:59:56.581Z,2.83
2023-09-02T18:02:27.548Z,2.28
2023-09-02T18:05:02.379Z,2.60
2023-09-02T18:07:32.687Z,3.17
2023-09-02T18:10:02.599Z,3.33
2023-09-02T18:12:31.902Z,3.72
2023-09-02T18:15:01.010Z,2.95
2023-09-02T18:17:30.028Z,2.42
2023-09-02T18:20:02.919Z,2.30
2023-09-02T18:22:32.702Z,2.30
2023-09-02T18:25:03.551Z,1.77
2023-09-02T18:27:34.369Z,2.08
2023-09-02T18:30:05.169Z,2.58
2023-09-02T18:32:34.936Z,2.45
2023-09-02T18:35:05.751Z,3.00
2023-09-02T18:37:38.143Z,2.75
2023-09-02T18:40:07.942Z,2.47
2023-09-02T18:42:38.229Z,3.00
2023-09-02T18:45:10.170Z,3.17
2023-09-02T18:47:40.624Z,2.33
2023-09-02T18:50:13.644Z,2.75
2023-09-02T18:52:42.755Z,3.08
2023-09-02T18:55:12.977Z,2.78
2023-09-02T18:57:44.134Z,3.67
2023-09-02T19:00:15.538Z,3.75
2023-09-02T19:02:45.718Z,3.55
2023-09-02T19:05:17.812Z,3.85
2023-09-02T19:07:48.237Z,3.45
2023-09-02T19:10:18.345Z,3.72
2023-09-02T19:12:48.766Z,3.20
2023-09-02T19:15:18.533Z,2.28
2023-09-02T19:17:48.446Z,2.92
2023-09-02T19:20:19.809Z,2.65
2023-09-02T19:22:49.616Z,2.70
2023-09-02T19:25:22.423Z,3.53
2023-09-02T19:27:53.095Z,2.70
2023-09-02T19:30:22.905Z,3.15
2023-09-02T19:32:55.860Z,2.35
2023-09-02T19:35:26.859Z,3.05
2023-09-02T19:37:56.326Z,3.63
2023-09-02T19:40:26.187Z,4.25
2023-09-02T19:42:58.594Z,4.40
2023-09-02T19:45:29.583Z,3.20
2023-09-02T19:48:00.587Z,3.20
2023-09-02T19:50:30.649Z,2.92
2023-09-02T19:53:00.985Z,3.85
2023-09-02T19:55:31.010Z,3.60
2023-09-02T19:58:00.448Z,3.88
2023-09-02T20:00:30.589Z,5.05
2023-09-02T20:03:01.864Z,4.82
2023-09-02T20:05:35.914Z,4.70
2023-09-02T20:08:05.167Z,7.13
2023-09-02T20:10:37.006Z,5.20
2023-09-02T20:13:12.253Z,5.30
2023-09-02T20:15:43.710Z,5.63
2023-09-02T20:18:13.704Z,4.72
2023-09-02T20:20:51.079Z,5.03
2023-09-02T20:23:20.730Z,4.85
2023-09-02T20:25:51.930Z,4.47
2023-09-02T20:28:21.531Z,4.80
2023-09-02T20:30:53.225Z,5.10
2023-09-02T20:33:23.659Z,4.97
2023-09-02T20:35:55.277Z,4.95
2023-09-02T20:38:25.560Z,4.43
2023-09-02T20:40:56.611Z,4.80
2023-09-02T20:43:27.265Z,4.85
2023-09-02T20:45:57.310Z,4.70
2023-09-02T20:48:26.627Z,4.70
2023-09-02T20:50:58.116Z,4.15
2023-09-02T20:53:28.343Z,4.53
2023-09-02T20:55:58.624Z,4.38
2023-09-02T20:58:29.170Z,4.93
2023-09-02T21:00:58.463Z,4.60
2023-09-02T21:03:27.071Z,6.22
2023-09-02T21:05:56.961Z,5.28
2023-09-02T21:08:25.621Z,5.57
2023-09-02T21:10:54.262Z,6.20
2023-09-02T21:13:22.747Z,5.25
2023-09-02T21:15:51.301Z,5.30
2023-09-02T21:18:20.327Z,5.30
2023-09-02T21:20:48.954Z,5.57
2023-09-02T21:23:18.827Z,4.93
2023-09-02T21:25:47.430Z,4.97
2023-09-02T21:28:15.880Z,4.93
2023-09-02T21:30:44.449Z,5.25
2023-09-02T21:33:12.954Z,5.18
2023-09-02T21:35:41.451Z,4.78
2023-09-02T21:38:09.877Z,4.50
2023-09-02T21:40:39.685Z,4.30
2023-09-02T21:43:08.177Z,4.50
2023-09-02T21:45:36.687Z,4.45
2023-09-02T21:48:05.935Z,4.93
2023-09-02T21:50:34.490Z,5.13
2023-09-02T21:53:03.016Z,5.05
2023-09-02T21:55:31.569Z,4.70
2023-09-02T21:58:01.444Z,4.63
2023-09-02T22:00:29.931Z,6.03
2023-09-02T22:02:58.541Z,7.43
2023-09-02T22:05:27.079Z,14.35
2023-09-02T22:07:55.552Z,8.07
2023-09-02T22:10:24.366Z,7.00
2023-09-02T22:12:53.571Z,5.78
2023-09-02T22:15:25.221Z,4.57
2023-09-02T22:17:53.825Z,4.97
2023-09-02T22:20:22.375Z,4.28
2023-09-02T22:22:50.884Z,4.50
2023-09-02T22:25:19.649Z,5.28
2023-09-02T22:27:48.217Z,4.93
2023-09-02T22:30:16.817Z,3.92
2023-09-02T22:32:46.716Z,4.88
2023-09-02T22:35:15.724Z,5.47
2023-09-02T22:37:44.192Z,6.10
2023-09-02T22:40:14.646Z,6.47
2023-09-02T22:42:43.117Z,5.50
2023-09-02T22:45:12.170Z,6.55
2023-09-02T22:47:40.682Z,6.72
2023-09-02T22:50:11.739Z,6.72
2023-09-02T22:52:40.186Z,5.93
2023-09-02T22:55:09.999Z,5.97
2023-09-02T22:57:38.761Z,5.07
2023-09-02T23:00:10.702Z,5.28
2023-09-02T23:02:39.307Z,4.10
2023-09-02T23:05:11.634Z,3.60
2023-09-02T23:07:40.082Z,4.60
2023-09-02T23:10:09.827Z,3.97
2023-09-02T23:12:38.468Z,3.95
2023-09-02T23:15:08.611Z,3.85
2023-09-02T23:17:37.170Z,3.72
2023-09-02T23:20:08.298Z,3.65
2023-09-02T23:22:38.428Z,3.65
2023-09-02T23:25:08.068Z,3.28
2023-09-02T23:27:36.586Z,3.55
2023-09-02T23:30:07.465Z,3.60
2023-09-02T23:32:38.364Z,3.33
2023-09-02T23:35:07.868Z,3.30
2023-09-02T23:37:37.779Z,2.92
2023-09-02T23:40:08.137Z,3.00
2023-09-02T23:42:36.578Z,3.08
2023-09-02T23:45:06.131Z,2.70
2023-09-02T23:47:34.575Z,2.88
2023-09-02T23:50:04.827Z,3.30
2023-09-02T23:52:34.001Z,4.28
2023-09-02T23:55:04.350Z,4.55
2023-09-02T23:57:32.983Z,3.97
